Time;durP1;ratioP1;P1;durP2;ratioP2;P2;SDS_P1;SDS_P2;PMS_P1;PMS_P2;Temp;Humidity;BMP_temperature;BMP_pressure;BME280_temperature;BME280_humidity;BME280_pressure;Samples;Min_cycle;Max_cycle;Signal;HPM_P1;HPM_P2
2022/06/20 00:00:23;;;;;;;26.25;14.18;;;;;;;;;;5057367;28;20096;-69
2022/06/20 00:02:50;;;;;;;26.02;14.45;;;;;;;;;;5062074;28;20115;-69
2022/06/20 00:05:18;;;;;;;27.92;13.32;;;;;;;;;;5073236;28;20036;-68
2022/06/20 00:07:44;;;;;;;24.38;12.73;;;;;;;;;;5075570;28;20095;-69
2022/06/20 00:10:13;;;;;;;25.70;12.27;;;;;;;;;;5080322;28;20564;-68
2022/06/20 00:12:38;;;;;;;25.15;11.70;;;;;;;;;;5066685;28;20028;-69
2022/06/20 00:15:04;;;;;;;24.50;10.73;;;;;;;;;;5061963;28;20032;-68
2022/06/20 00:17:29;;;;;;;24.25;11.55;;;;;;;;;;5078961;28;20036;-69
2022/06/20 00:19:54;;;;;;;24.33;11.25;;;;;;;;;;5076426;28;20013;-69
2022/06/20 00:22:20;;;;;;;18.40;10.30;;;;;;;;;;5083582;28;20035;-68
2022/06/20 00:24:45;;;;;;;23.92;9.82;;;;;;;;;;5078953;28;20277;-69
2022/06/20 00:27:10;;;;;;;20.60;10.52;;;;;;;;;;5075954;28;20111;-69
2022/06/20 00:29:36;;;;;;;26.52;10.15;;;;;;;;;;5067202;28;20103;-69
2022/06/20 00:32:02;;;;;;;25.75;10.07;;;;;;;;;;5081351;28;20016;-68
2022/06/20 00:34:27;;;;;;;19.98;9.60;;;;;;;;;;5082050;28;20523;-68
2022/06/20 00:36:52;;;;;;;23.25;10.43;;;;;;;;;;5078481;28;20017;-69
2022/06/20 00:39:19;;;;;;;23.40;10.40;;;;;;;;;;5080503;28;20020;-69
2022/06/20 00:41:44;;;;;;;32.53;11.57;;;;;;;;;;5071112;28;20639;-69
2022/06/20 00:44:14;;;;;;;18.87;9.87;;;;;;;;;;5052017;28;20058;-70
2022/06/20 00:46:45;;;;;;;21.50;9.63;;;;;;;;;;5075191;28;20616;-69
2022/06/20 00:49:14;;;;;;;25.17;9.85;;;;;;;;;;5073925;28;20147;-69
2022/06/20 00:51:50;;;;;;;25.05;8.52;;;;;;;;;;5079558;28;20067;-70
2022/06/20 00:54:32;;;;;;;20.92;7.50;;;;;;;;;;5059676;28;20041;-70
2022/06/20 00:57:06;;;;;;;17.17;6.88;;;;;;;;;;5065173;28;20020;-70
2022/06/20 00:59:33;;;;;;;17.25;7.30;;;;;;;;;;5065658;28;20107;-70
2022/06/20 01:02:00;;;;;;;20.60;6.97;;;;;;;;;;5080190;28;20561;-70
2022/06/20 01:04:25;;;;;;;24.80;8.05;;;;;;;;;;5071310;28;20017;-70
2022/06/20 01:06:54;;;;;;;18.20;6.53;;;;;;;;;;5077815;28;20020;-70
2022/06/20 01:09:21;;;;;;;18.95;6.63;;;;;;;;;;5070274;28;20111;-69
2022/06/20 01:11:51;;;;;;;14.85;6.72;;;;;;;;;;5060537;28;20037;-69
2022/06/20 01:14:17;;;;;;;15.35;6.38;;;;;;;;;;5071675;28;20024;-69
2022/06/20 01:16:43;;;;;;;11.32;5.97;;;;;;;;;;5077752;28;20086;-69
2022/06/20 01:19:09;;;;;;;20.15;7.05;;;;;;;;;;5068058;28;20021;-70
2022/06/20 01:21:35;;;;;;;18.80;7.97;;;;;;;;;;5077759;28;20085;-70
2022/06/20 01:24:00;;;;;;;19.63;6.75;;;;;;;;;;5074238;28;20020;-70
2022/06/20 01:26:46;;;;;;;16.73;8.20;;;;;;;;;;5065487;28;20550;-70
2022/06/20 01:29:11;;;;;;;27.08;9.05;;;;;;;;;;5070336;28;20033;-70
2022/06/20 01:31:39;;;;;;;22.52;9.02;;;;;;;;;;5076947;28;20117;-69
2022/06/20 01:34:04;;;;;;;20.75;10.68;;;;;;;;;;5077415;28;20032;-69
2022/06/20 01:39:16;;;;;;;27.95;12.05;;;;;;;;;;5069950;28;20051;-70
2022/06/20 01:44:25;;;;;;;34.97;15.43;;;;;;;;;;5073127;28;20435;-69
2022/06/20 01:46:51;;;;;;;34.15;15.27;;;;;;;;;;5075993;28;20020;-70
2022/06/20 01:49:19;;;;;;;37.30;16.60;;;;;;;;;;5075134;28;20387;-69
2022/06/20 01:51:55;;;;;;;33.78;16.63;;;;;;;;;;5079239;28;20788;-69
2022/06/20 01:54:21;;;;;;;39.67;16.77;;;;;;;;;;5059319;28;20012;-69
2022/06/20 01:56:47;;;;;;;32.92;14.68;;;;;;;;;;5075016;28;20102;-69
2022/06/20 01:59:21;;;;;;;28.08;15.30;;;;;;;;;;5075762;28;20020;-69
2022/06/20 02:01:47;;;;;;;40.00;16.23;;;;;;;;;;5076778;28;20029;-68
2022/06/20 02:04:14;;;;;;;33.70;15.90;;;;;;;;;;5064437;28;20013;-68
2022/06/20 02:06:39;;;;;;;36.63;17.98;;;;;;;;;;5072962;28;20481;-68
2022/06/20 02:09:06;;;;;;;41.53;18.20;;;;;;;;;;5075746;28;20130;-68
2022/06/20 02:11:32;;;;;;;38.25;18.58;;;;;;;;;;5076432;28;20028;-68
2022/06/20 02:14:00;;;;;;;38.50;18.70;;;;;;;;;;5074593;28;20047;-68
2022/06/20 02:16:26;;;;;;;37.50;19.02;;;;;;;;;;5076688;28;20531;-68
2022/06/20 02:18:53;;;;;;;47.92;20.98;;;;;;;;;;5059555;28;20028;-68
2022/06/20 02:21:26;;;;;;;42.33;22.48;;;;;;;;;;5078235;28;20115;-69
2022/06/20 02:23:54;;;;;;;44.70;24.02;;;;;;;;;;5079382;28;20012;-68
2022/06/20 02:26:21;;;;;;;38.40;22.58;;;;;;;;;;5079554;28;20023;-69
2022/06/20 02:28:52;;;;;;;48.70;24.52;;;;;;;;;;5076775;28;20031;-69
2022/06/20 02:31:17;;;;;;;44.63;22.95;;;;;;;;;;5084228;28;20020;-69
2022/06/20 02:33:44;;;;;;;42.90;22.20;;;;;;;;;;5067085;28;20484;-68
2022/06/20 02:36:09;;;;;;;40.20;22.55;;;;;;;;;;5080349;28;20031;-68
2022/06/20 02:38:36;;;;;;;40.40;21.25;;;;;;;;;;5073260;28;20020;-69
2022/06/20 02:41:01;;;;;;;48.28;23.33;;;;;;;;;;5082152;28;20461;-69
2022/06/20 02:43:33;;;;;;;41.20;20.40;;;;;;;;;;5073309;28;20028;-69
2022/06/20 02:45:59;;;;;;;34.33;18.17;;;;;;;;;;5074111;28;20817;-68
2022/06/20 02:48:25;;;;;;;43.53;20.02;;;;;;;;;;5069220;28;20040;-69
2022/06/20 02:50:53;;;;;;;38.05;18.90;;;;;;;;;;5081442;28;20410;-68
2022/06/20 02:53:24;;;;;;;36.70;19.17;;;;;;;;;;5078468;28;20365;-68
2022/06/20 02:55:50;;;;;;;29.70;14.18;;;;;;;;;;5082908;28;20107;-68
2022/06/20 02:58:20;;;;;;;28.45;11.10;;;;;;;;;;5075747;28;20463;-68
2022/06/20 03:00:45;;;;;;;;;;;;;;;;;;5066588;28;20020;-69
2022/06/20 03:03:15;;;;;;;30.48;14.10;;;;;;;;;;5073947;28;19931;-69
2022/06/20 03:05:40;;;;;;;42.85;15.38;;;;;;;;;;5080659;28;20706;-68
2022/06/20 03:08:05;;;;;;;26.40;13.80;;;;;;;;;;5072518;28;20051;-69
2022/06/20 03:10:35;;;;;;;26.42;13.65;;;;;;;;;;5070557;28;20042;-70
2022/06/20 03:13:01;;;;;;;;;;;;;;;;;;5081413;28;20380;-69
2022/06/20 03:15:27;;;;;;;26.38;13.65;;;;;;;;;;5078178;28;20786;-69
2022/06/20 03:17:53;;;;;;;24.45;13.98;;;;;;;;;;5060021;28;20021;-68
2022/06/20 03:20:20;;;;;;;21.15;12.57;;;;;;;;;;5072509;28;20031;-69
2022/06/20 03:22:55;;;;;;;17.30;11.35;;;;;;;;;;5080813;28;20096;-69
2022/06/20 03:25:21;;;;;;;20.80;11.68;;;;;;;;;;5075115;28;20642;-69
2022/06/20 03:27:48;;;;;;;25.20;11.35;;;;;;;;;;5069397;28;20108;-69
2022/06/20 03:30:20;;;;;;;19.25;12.00;;;;;;;;;;5070041;28;20020;-69
2022/06/20 03:32:45;;;;;;;18.48;11.00;;;;;;;;;;5061830;28;20017;-69
2022/06/20 03:35:11;;;;;;;18.60;11.83;;;;;;;;;;5086481;28;20511;-69
2022/06/20 03:37:37;;;;;;;22.30;12.23;;;;;;;;;;5081961;28;20290;-69
2022/06/20 03:40:02;;;;;;;20.65;12.98;;;;;;;;;;5081100;28;20016;-69
2022/06/20 03:42:27;;;;;;;25.23;11.60;;;;;;;;;;5085881;28;20439;-69
2022/06/20 03:44:54;;;;;;;20.53;12.37;;;;;;;;;;5079427;28;20127;-69
2022/06/20 03:47:24;;;;;;;20.42;12.50;;;;;;;;;;5056797;28;20276;-69
2022/06/20 03:49:54;;;;;;;20.05;11.95;;;;;;;;;;5081715;28;20392;-69
2022/06/20 03:52:20;;;;;;;21.95;12.93;;;;;;;;;;5068381;28;20035;-69
2022/06/20 03:54:52;;;;;;;20.73;12.00;;;;;;;;;;5080120;28;20016;-69
2022/06/20 03:57:17;;;;;;;22.10;14.10;;;;;;;;;;5073052;28;20082;-69
2022/06/20 03:59:45;;;;;;;26.33;12.77;;;;;;;;;;5072574;28;20024;-69
2022/06/20 04:02:13;;;;;;;21.27;12.15;;;;;;;;;;5067008;28;20316;-69
2022/06/20 04:04:42;;;;;;;24.88;12.32;;;;;;;;;;5074043;28;20489;-69
2022/06/20 04:07:09;;;;;;;23.15;12.20;;;;;;;;;;5080565;28;20043;-69
2022/06/20 04:12:23;;;;;;;23.45;12.15;;;;;;;;;;5070228;28;20070;-69
2022/06/20 04:14:55;;;;;;;19.88;12.10;;;;;;;;;;5080150;28;20074;-70
2022/06/20 04:20:33;;;;;;;23.88;14.23;;;;;;;;;;5062106;28;20531;-68
2022/06/20 04:23:01;;;;;;;21.85;13.75;;;;;;;;;;5080896;28;20017;-68
2022/06/20 04:25:45;;;;;;;20.42;13.05;;;;;;;;;;5079236;28;20497;-68
2022/06/20 04:28:18;;;;;;;23.75;13.70;;;;;;;;;;5086085;28;20094;-68
2022/06/20 04:30:46;;;;;;;26.80;13.88;;;;;;;;;;5077529;28;22133;-68
2022/06/20 04:33:13;;;;;;;26.60;14.70;;;;;;;;;;5069141;28;20052;-68
2022/06/20 04:35:42;;;;;;;32.75;17.15;;;;;;;;;;5070663;28;20021;-68
2022/06/20 04:38:14;;;;;;;22.27;14.68;;;;;;;;;;5076304;28;20461;-67
2022/06/20 04:40:45;;;;;;;32.10;16.40;;;;;;;;;;5077209;28;20032;-68
2022/06/20 04:43:34;;;;;;;32.58;18.00;;;;;;;;;;5076780;28;20481;-68
2022/06/20 04:46:05;;;;;;;30.55;17.50;;;;;;;;;;5061721;28;20055;-68
2022/06/20 04:48:31;;;;;;;25.77;16.45;;;;;;;;;;5062786;28;20020;-68
2022/06/20 04:50:57;;;;;;;32.70;17.40;;;;;;;;;;5075425;28;20430;-67
2022/06/20 04:53:43;;;;;;;28.65;17.60;;;;;;;;;;5075127;28;20016;-68
2022/06/20 04:56:10;;;;;;;29.98;16.08;;;;;;;;;;5066351;28;20041;-68
2022/06/20 04:58:39;;;;;;;27.13;16.45;;;;;;;;;;5090270;28;20020;-67
2022/06/20 05:01:06;;;;;;;36.35;17.80;;;;;;;;;;5067863;28;20387;-68
2022/06/20 05:03:36;;;;;;;30.85;17.17;;;;;;;;;;5068449;28;20457;-68
2022/06/20 05:06:03;;;;;;;28.42;17.88;;;;;;;;;;5077471;28;20500;-68
2022/06/20 05:08:31;;;;;;;27.02;16.65;;;;;;;;;;5074702;28;20107;-68
2022/06/20 05:11:00;;;;;;;36.90;18.20;;;;;;;;;;5072420;28;20020;-68
2022/06/20 05:13:34;;;;;;;31.17;17.58;;;;;;;;;;5082952;28;20384;-68
2022/06/20 05:15:59;;;;;;;31.10;15.85;;;;;;;;;;5059984;28;20350;-68
2022/06/20 05:18:24;;;;;;;27.08;16.35;;;;;;;;;;5069669;28;20094;-68
2022/06/20 05:20:52;;;;;;;30.88;17.00;;;;;;;;;;5070976;28;20020;-68
2022/06/20 05:23:20;;;;;;;26.35;16.08;;;;;;;;;;5080593;28;20044;-68
2022/06/20 05:25:46;;;;;;;31.05;16.75;;;;;;;;;;5076563;28;20054;-68
2022/06/20 05:28:17;;;;;;;29.48;16.30;;;;;;;;;;5075986;28;20028;-68
2022/06/20 05:30:43;;;;;;;30.42;15.88;;;;;;;;;;5058970;28;20465;-68
2022/06/20 05:33:16;;;;;;;31.38;16.05;;;;;;;;;;5073942;28;20055;-68
2022/06/20 05:35:48;;;;;;;27.02;16.15;;;;;;;;;;5068329;28;20115;-68
2022/06/20 05:38:19;;;;;;;23.67;15.27;;;;;;;;;;5067863;28;20023;-68
2022/06/20 05:40:48;;;;;;;24.85;15.95;;;;;;;;;;5070659;28;20111;-70
2022/06/20 05:43:20;;;;;;;30.35;15.30;;;;;;;;;;5060828;28;20032;-68
2022/06/20 05:45:50;;;;;;;23.00;14.32;;;;;;;;;;5052657;28;20044;-68
2022/06/20 05:48:16;;;;;;;24.88;13.98;;;;;;;;;;5047377;28;20038;-69
2022/06/20 05:50:48;;;;;;;23.13;14.48;;;;;;;;;;5065174;28;20036;-68
2022/06/20 05:53:16;;;;;;;21.92;14.50;;;;;;;;;;5073118;28;20031;-68
2022/06/20 05:55:47;;;;;;;23.48;13.32;;;;;;;;;;5077116;28;20090;-68
2022/06/20 05:58:12;;;;;;;;;;;;;;;;;;5079673;28;20384;-68
2022/06/20 06:00:38;;;;;;;28.52;13.93;;;;;;;;;;5083580;28;19919;-68
2022/06/20 06:03:08;;;;;;;30.02;14.48;;;;;;;;;;5076279;28;20020;-68
2022/06/20 06:05:36;;;;;;;27.02;13.13;;;;;;;;;;5067694;28;20104;-68
2022/06/20 06:08:04;;;;;;;25.90;12.00;;;;;;;;;;5066916;28;20021;-68
2022/06/20 06:10:41;;;;;;;40.30;13.05;;;;;;;;;;5082468;28;20060;-68
2022/06/20 06:13:17;;;;;;;28.73;10.07;;;;;;;;;;5083145;28;20047;-68
2022/06/20 06:18:42;;;;;;;21.65;9.38;;;;;;;;;;5059363;28;20036;-69
2022/06/20 06:21:08;;;;;;;16.13;8.73;;;;;;;;;;5077539;28;20024;-68
2022/06/20 06:23:33;;;;;;;20.92;8.52;;;;;;;;;;5063511;28;20020;-68
2022/06/20 06:25:58;;;;;;;17.60;8.80;;;;;;;;;;5083096;28;20016;-67
2022/06/20 06:28:24;;;;;;;19.60;8.83;;;;;;;;;;5054560;28;20031;-68
2022/06/20 06:30:52;;;;;;;24.33;8.68;;;;;;;;;;5059268;28;20743;-68
2022/06/20 06:33:20;;;;;;;26.20;9.00;;;;;;;;;;5057046;28;20032;-68
2022/06/20 06:35:48;;;;;;;26.70;8.07;;;;;;;;;;5053381;28;20405;-69
2022/06/20 06:38:18;;;;;;;19.52;7.68;;;;;;;;;;5059830;28;20079;-68
2022/06/20 06:40:47;;;;;;;18.73;8.38;;;;;;;;;;5073620;28;20628;-68
2022/06/20 06:43:37;;;;;;;16.88;7.70;;;;;;;;;;5069591;28;20074;-71
2022/06/20 06:46:04;;;;;;;17.80;6.63;;;;;;;;;;5060561;28;20025;-68
2022/06/20 06:48:37;;;;;;;21.08;7.38;;;;;;;;;;5061313;28;20362;-68
2022/06/20 06:51:11;;;;;;;12.07;5.93;;;;;;;;;;5077824;28;20086;-69
2022/06/20 06:53:56;;;;;;;15.07;6.95;;;;;;;;;;5063299;28;20021;-69
2022/06/20 06:56:21;;;;;;;19.80;6.50;;;;;;;;;;5067902;28;20575;-69
2022/06/20 06:58:52;;;;;;;17.95;5.75;;;;;;;;;;5073803;28;20123;-69
2022/06/20 07:01:17;;;;;;;;;;;;;;;;;;5063090;28;20082;-69
2022/06/20 07:03:55;;;;;;;14.95;5.90;;;;;;;;;;5067277;28;19908;-69
2022/06/20 07:06:31;;;;;;;13.00;5.85;;;;;;;;;;5074761;28;20115;-69
2022/06/20 07:09:19;;;;;;;13.38;5.28;;;;;;;;;;5076770;28;20025;-69
2022/06/20 07:11:54;;;;;;;18.17;6.10;;;;;;;;;;5082969;28;20016;-69
2022/06/20 07:14:21;;;;;;;17.10;6.68;;;;;;;;;;5070182;28;20037;-70
2022/06/20 07:16:58;;;;;;;16.25;6.18;;;;;;;;;;5060918;28;20090;-72
2022/06/20 07:19:24;;;;;;;18.90;6.97;;;;;;;;;;5077486;28;20102;-72
2022/06/20 07:21:49;;;;;;;16.55;6.68;;;;;;;;;;5074846;28;20107;-71
2022/06/20 07:24:20;;;;;;;17.52;7.50;;;;;;;;;;5082840;28;20085;-70
2022/06/20 07:27:06;;;;;;;18.52;7.47;;;;;;;;;;5078838;28;20023;-70
2022/06/20 07:29:33;;;;;;;18.73;7.65;;;;;;;;;;5068798;28;20093;-70
2022/06/20 07:32:10;;;;;;;19.35;7.72;;;;;;;;;;5059369;28;20036;-70
2022/06/20 07:34:39;;;;;;;18.38;8.32;;;;;;;;;;5067287;28;20099;-70
2022/06/20 07:37:09;;;;;;;20.48;9.10;;;;;;;;;;5065080;28;20019;-70
2022/06/20 07:39:47;;;;;;;19.52;9.20;;;;;;;;;;5071261;28;20025;-70
2022/06/20 07:42:30;;;;;;;24.10;8.52;;;;;;;;;;5059108;28;20021;-70
2022/06/20 07:45:15;;;;;;;25.27;8.07;;;;;;;;;;5060910;28;20020;-70
2022/06/20 07:47:48;;;;;;;24.40;8.02;;;;;;;;;;5067511;28;20078;-70
2022/06/20 07:50:17;;;;;;;19.55;7.93;;;;;;;;;;5081008;28;20028;-70
2022/06/20 07:52:47;;;;;;;17.85;7.93;;;;;;;;;;5080503;28;20021;-70
2022/06/20 07:55:14;;;;;;;25.85;7.80;;;;;;;;;;5064010;28;20025;-70
2022/06/20 07:57:46;;;;;;;23.75;8.65;;;;;;;;;;5070173;28;20366;-70
2022/06/20 08:00:13;;;;;;;14.68;7.53;;;;;;;;;;5084123;28;20040;-70
2022/06/20 08:02:41;;;;;;;18.33;8.00;;;;;;;;;;5063120;28;20025;-70
2022/06/20 08:05:10;;;;;;;14.93;7.22;;;;;;;;;;5082152;28;20091;-70
2022/06/20 08:07:39;;;;;;;23.25;8.15;;;;;;;;;;5076536;28;20026;-70
2022/06/20 08:10:15;;;;;;;15.43;8.10;;;;;;;;;;5062668;28;20489;-70
2022/06/20 08:12:51;;;;;;;15.05;6.47;;;;;;;;;;5069834;28;20020;-69
2022/06/20 08:15:39;;;;;;;15.18;5.63;;;;;;;;;;5068979;28;20485;-69
2022/06/20 08:18:04;;;;;;;12.10;5.22;;;;;;;;;;5055336;28;20085;-69
2022/06/20 08:20:32;;;;;;;13.95;5.07;;;;;;;;;;5061360;28;20161;-69
2022/06/20 08:23:00;;;;;;;11.73;5.45;;;;;;;;;;5077071;28;20051;-69
2022/06/20 08:25:29;;;;;;;19.08;4.88;;;;;;;;;;5064310;28;20070;-70
2022/06/20 08:27:59;;;;;;;10.07;3.73;;;;;;;;;;5068225;28;20024;-70
2022/06/20 08:30:33;;;;;;;7.38;3.63;;;;;;;;;;5071333;28;20025;-70
2022/06/20 08:33:34;;;;;;;10.43;3.50;;;;;;;;;;5057851;28;20040;-70
2022/06/20 08:35:59;;;;;;;;;;;;;;;;;;4969302;28;20039;-70
2022/06/20 08:38:29;;;;;;;16.25;3.45;;;;;;;;;;5037652;28;19923;-70
2022/06/20 08:40:54;;;;;;;;;;;;;;;;;;5077604;28;20671;-70
2022/06/20 08:43:40;;;;;;;6.65;2.22;;;;;;;;;;5078919;28;20498;-70
2022/06/20 08:46:12;;;;;;;10.80;3.28;;;;;;;;;;5075505;28;20095;-70
2022/06/20 08:48:52;;;;;;;9.27;3.60;;;;;;;;;;5071760;28;20481;-69
2022/06/20 08:51:27;;;;;;;10.95;2.53;;;;;;;;;;5062987;28;20040;-70
2022/06/20 08:54:02;;;;;;;11.10;3.78;;;;;;;;;;5076590;28;20020;-69
2022/06/20 08:56:39;;;;;;;7.88;2.80;;;;;;;;;;5072430;28;20450;-70
2022/06/20 08:59:17;;;;;;;8.30;2.83;;;;;;;;;;5077348;28;20056;-69
2022/06/20 09:01:43;;;;;;;10.07;2.05;;;;;;;;;;5076762;28;20016;-69
2022/06/20 09:04:27;;;;;;;14.87;2.63;;;;;;;;;;5069831;28;20047;-69
2022/06/20 09:07:00;;;;;;;7.03;2.50;;;;;;;;;;5057698;28;20035;-69
2022/06/20 09:09:25;;;;;;;11.02;2.70;;;;;;;;;;5060261;28;20024;-69
2022/06/20 09:11:59;;;;;;;8.93;2.53;;;;;;;;;;5076210;28;20024;-69
2022/06/20 09:14:34;;;;;;;13.07;3.20;;;;;;;;;;5082547;28;20277;-69
2022/06/20 09:17:21;;;;;;;10.60;3.25;;;;;;;;;;5069789;28;20561;-69
2022/06/20 09:20:02;;;;;;;15.38;3.10;;;;;;;;;;5059865;28;20021;-69
2022/06/20 09:22:38;;;;;;;11.55;2.70;;;;;;;;;;5072444;28;20029;-69
2022/06/20 09:25:26;;;;;;;23.48;3.13;;;;;;;;;;5068440;28;20017;-69
2022/06/20 09:27:58;;;;;;;10.73;3.42;;;;;;;;;;5065771;28;20032;-69
2022/06/20 09:30:35;;;;;;;19.42;3.78;;;;;;;;;;5075341;28;20125;-68
2022/06/20 09:33:19;;;;;;;16.23;4.47;;;;;;;;;;5077514;28;20035;-69
2022/06/20 09:36:12;;;;;;;11.85;3.47;;;;;;;;;;5063054;28;20032;-69
2022/06/20 09:38:40;;;;;;;18.50;4.13;;;;;;;;;;5064792;28;20024;-69
2022/06/20 09:41:16;;;;;;;18.30;4.13;;;;;;;;;;5063060;28;20013;-69
2022/06/20 09:44:00;;;;;;;14.07;4.00;;;;;;;;;;5073480;28;20046;-69
2022/06/20 09:46:37;;;;;;;13.25;4.38;;;;;;;;;;5074577;28;20621;-69
2022/06/20 09:49:05;;;;;;;10.57;4.32;;;;;;;;;;5059725;28;20028;-69
2022/06/20 09:51:45;;;;;;;12.68;3.92;;;;;;;;;;5069635;28;20023;-69
2022/06/20 09:54:10;;;;;;;11.30;3.88;;;;;;;;;;5079260;28;20032;-69
2022/06/20 09:56:48;;;;;;;11.10;5.03;;;;;;;;;;5076619;28;20493;-69
2022/06/20 09:59:21;;;;;;;15.23;5.43;;;;;;;;;;5068510;28;20279;-69
2022/06/20 10:02:10;;;;;;;17.38;5.40;;;;;;;;;;5069096;28;20469;-69
2022/06/20 10:04:46;;;;;;;15.57;5.45;;;;;;;;;;5050566;28;20074;-69
2022/06/20 10:07:14;;;;;;;16.38;5.43;;;;;;;;;;5068286;28;20028;-69
2022/06/20 10:09:52;;;;;;;23.15;5.60;;;;;;;;;;5068918;28;20501;-69
2022/06/20 10:12:17;;;;;;;17.02;5.07;;;;;;;;;;5069402;28;20024;-69
2022/06/20 10:14:54;;;;;;;15.73;4.85;;;;;;;;;;5085600;28;20012;-69
2022/06/20 10:17:31;;;;;;;15.25;5.00;;;;;;;;;;5068979;28;20036;-68
2022/06/20 10:20:05;;;;;;;15.93;6.03;;;;;;;;;;5067059;28;20109;-68
2022/06/20 10:23:00;;;;;;;11.88;4.55;;;;;;;;;;5064736;28;20024;-68
2022/06/20 10:25:32;;;;;;;15.48;4.75;;;;;;;;;;5003983;28;20070;-67
2022/06/20 10:28:09;;;;;;;14.13;4.68;;;;;;;;;;5067212;28;20072;-68
2022/06/20 10:31:10;;;;;;;13.20;4.28;;;;;;;;;;5080623;28;20432;-68
2022/06/20 10:33:52;;;;;;;14.27;4.72;;;;;;;;;;4971450;28;20491;-68
2022/06/20 10:36:17;;;;;;;17.92;5.07;;;;;;;;;;5054041;28;20566;-68
2022/06/20 10:38:49;;;;;;;21.63;5.90;;;;;;;;;;5074028;28;20186;-68
2022/06/20 10:41:27;;;;;;;18.48;5.05;;;;;;;;;;5076974;28;20337;-68
2022/06/20 10:44:01;;;;;;;15.57;4.72;;;;;;;;;;5081155;28;20465;-69
2022/06/20 10:46:28;;;;;;;19.13;5.70;;;;;;;;;;5072990;28;20512;-68
2022/06/20 10:48:59;;;;;;;19.67;5.70;;;;;;;;;;5063538;28;20024;-68
2022/06/20 10:51:43;;;;;;;15.70;5.57;;;;;;;;;;5068830;28;20031;-68
2022/06/20 10:54:08;;;;;;;13.05;5.50;;;;;;;;;;5085599;28;20027;-68
2022/06/20 10:56:34;;;;;;;21.52;6.00;;;;;;;;;;5076322;28;20035;-68
2022/06/20 10:59:02;;;;;;;11.13;4.57;;;;;;;;;;5083612;28;20024;-68
2022/06/20 11:01:47;;;;;;;17.08;5.45;;;;;;;;;;5058786;28;20020;-68
2022/06/20 11:04:19;;;;;;;26.30;6.18;;;;;;;;;;5072329;28;20092;-68
2022/06/20 11:07:13;;;;;;;12.65;5.35;;;;;;;;;;5066734;28;20009;-68
2022/06/20 11:09:41;;;;;;;17.80;6.03;;;;;;;;;;5066814;28;20017;-68
2022/06/20 11:12:25;;;;;;;14.68;5.47;;;;;;;;;;5078036;28;20027;-68
2022/06/20 11:14:53;;;;;;;16.50;5.30;;;;;;;;;;5065778;28;20101;-68
2022/06/20 11:17:23;;;;;;;13.80;5.22;;;;;;;;;;5064623;28;20027;-68
2022/06/20 11:20:00;;;;;;;17.48;5.35;;;;;;;;;;5076387;28;20477;-68
2022/06/20 11:22:38;;;;;;;27.52;5.40;;;;;;;;;;5068376;28;20021;-68
2022/06/20 11:25:06;;;;;;;17.00;5.22;;;;;;;;;;5061692;28;20021;-69
2022/06/20 11:27:44;;;;;;;14.23;5.22;;;;;;;;;;5056682;28;20016;-67
2022/06/20 11:30:14;;;;;;;16.77;5.63;;;;;;;;;;5070143;28;20024;-67
2022/06/20 11:32:51;;;;;;;15.43;6.22;;;;;;;;;;5060242;28;20009;-67
2022/06/20 11:35:16;;;;;;;19.50;4.95;;;;;;;;;;5066194;28;20369;-67
2022/06/20 11:37:50;;;;;;;12.93;4.95;;;;;;;;;;5065939;28;20115;-67
2022/06/20 11:40:33;;;;;;;17.15;4.90;;;;;;;;;;5082703;28;20023;-67
2022/06/20 11:43:06;;;;;;;9.45;3.22;;;;;;;;;;5076486;28;20107;-67
2022/06/20 11:45:50;;;;;;;9.63;3.20;;;;;;;;;;5078031;28;20009;-67
2022/06/20 11:48:22;;;;;;;9.13;2.97;;;;;;;;;;5064793;28;20036;-67
2022/06/20 11:50:47;;;;;;;10.52;3.28;;;;;;;;;;5058274;28;20090;-67
2022/06/20 11:53:12;;;;;;;11.70;3.53;;;;;;;;;;5066483;28;20473;-67
2022/06/20 11:55:45;;;;;;;11.20;2.97;;;;;;;;;;5059498;28;20031;-67
2022/06/20 11:58:29;;;;;;;10.05;3.45;;;;;;;;;;5063978;28;20021;-67
2022/06/20 12:01:14;;;;;;;7.95;2.42;;;;;;;;;;5056108;28;20013;-68
2022/06/20 12:03:46;;;;;;;13.15;3.30;;;;;;;;;;5055326;28;20618;-67
2022/06/20 12:06:17;;;;;;;8.60;3.42;;;;;;;;;;5055779;28;20105;-67
2022/06/20 12:09:04;;;;;;;9.90;3.33;;;;;;;;;;5056910;28;20024;-67
2022/06/20 12:11:29;;;;;;;9.85;3.10;;;;;;;;;;5054877;28;20021;-68
2022/06/20 12:14:19;;;;;;;8.57;2.83;;;;;;;;;;5055204;28;20021;-67
2022/06/20 12:17:17;;;;;;;10.10;2.65;;;;;;;;;;5052295;28;20678;-68
2022/06/20 12:25:27;;;;;;;6.63;1.85;;;;;;;;;;5060826;28;20102;-68
2022/06/20 12:27:53;;;;;;;4.63;1.95;;;;;;;;;;5088783;28;20499;-68
2022/06/20 12:30:19;;;;;;;7.28;1.85;;;;;;;;;;5061273;28;20021;-68
2022/06/20 12:32:45;;;;;;;5.22;1.90;;;;;;;;;;5057305;28;20017;-68
2022/06/20 12:35:20;;;;;;;12.73;2.50;;;;;;;;;;5061188;28;20096;-68
2022/06/20 12:37:48;;;;;;;11.80;2.85;;;;;;;;;;5063875;28;20024;-67
2022/06/20 12:40:36;;;;;;;6.63;1.85;;;;;;;;;;5084343;28;20033;-68
2022/06/20 12:43:20;;;;;;;6.07;1.88;;;;;;;;;;5067036;28;20016;-68
2022/06/20 12:45:46;;;;;;;8.48;1.88;;;;;;;;;;5061982;28;20017;-68
2022/06/20 12:48:29;;;;;;;9.05;1.88;;;;;;;;;;5067313;28;20020;-68
2022/06/20 12:51:04;;;;;;;5.50;1.77;;;;;;;;;;5075034;28;20056;-68
2022/06/20 12:53:46;;;;;;;6.57;1.60;;;;;;;;;;5068984;28;20118;-67
2022/06/20 12:56:30;;;;;;;8.45;2.00;;;;;;;;;;5075662;28;20059;-68
2022/06/20 12:59:13;;;;;;;9.55;1.67;;;;;;;;;;5067723;28;20021;-68
2022/06/20 13:01:51;;;;;;;7.15;1.95;;;;;;;;;;5071805;28;20016;-68
2022/06/20 13:04:35;;;;;;;8.25;1.48;;;;;;;;;;5070948;28;20020;-68
2022/06/20 13:07:09;;;;;;;4.82;1.20;;;;;;;;;;5086533;28;20353;-69
2022/06/20 13:09:52;;;;;;;6.60;1.40;;;;;;;;;;5061939;28;20044;-69
2022/06/20 13:12:20;;;;;;;7.22;1.92;;;;;;;;;;5064151;28;20025;-69
2022/06/20 13:15:06;;;;;;;6.47;1.60;;;;;;;;;;5064824;28;20021;-69
2022/06/20 13:17:34;;;;;;;9.80;1.73;;;;;;;;;;5079863;28;20091;-69
2022/06/20 13:20:18;;;;;;;6.97;1.70;;;;;;;;;;5068031;28;20031;-70
2022/06/20 13:22:49;;;;;;;4.82;1.48;;;;;;;;;;5073951;28;20016;-70
2022/06/20 13:25:23;;;;;;;4.00;1.48;;;;;;;;;;5059348;28;20021;-70
2022/06/20 13:27:48;;;;;;;7.07;1.77;;;;;;;;;;5071723;28;20107;-69
2022/06/20 13:30:13;;;;;;;9.10;1.85;;;;;;;;;;5063005;28;20104;-70
2022/06/20 13:32:46;;;;;;;11.73;2.80;;;;;;;;;;5058099;28;20024;-70
2022/06/20 13:35:18;;;;;;;6.53;1.60;;;;;;;;;;5076745;28;20385;-70
2022/06/20 13:38:04;;;;;;;5.13;1.55;;;;;;;;;;5064880;28;20017;-70
2022/06/20 13:40:44;;;;;;;9.40;1.67;;;;;;;;;;5012356;28;20090;-70
2022/06/20 13:43:25;;;;;;;6.25;1.70;;;;;;;;;;5062476;28;20446;-70
2022/06/20 13:45:58;;;;;;;9.80;2.72;;;;;;;;;;5069826;28;20055;-70
2022/06/20 13:48:35;;;;;;;6.13;1.73;;;;;;;;;;5070852;28;20024;-70
2022/06/20 13:51:06;;;;;;;9.23;1.98;;;;;;;;;;5059572;28;20750;-70
2022/06/20 13:53:31;;;;;;;9.07;1.75;;;;;;;;;;5071861;28;20053;-70
2022/06/20 13:56:09;;;;;;;6.45;1.80;;;;;;;;;;5059535;28;20114;-70
2022/06/20 13:58:40;;;;;;;6.85;1.75;;;;;;;;;;5070718;28;20072;-70
2022/06/20 14:01:13;;;;;;;7.78;1.70;;;;;;;;;;5075098;28;20091;-70
2022/06/20 14:03:46;;;;;;;5.38;1.80;;;;;;;;;;5063113;28;20055;-70
2022/06/20 14:06:16;;;;;;;9.15;2.25;;;;;;;;;;5070989;28;20024;-70
2022/06/20 14:08:47;;;;;;;5.80;1.88;;;;;;;;;;5074467;28;20031;-70
2022/06/20 14:11:32;;;;;;;7.75;2.08;;;;;;;;;;5056167;28;20159;-70
2022/06/20 14:13:59;;;;;;;6.53;1.90;;;;;;;;;;5044699;28;20354;-70
2022/06/20 14:16:32;;;;;;;7.88;1.85;;;;;;;;;;5079128;28;20474;-70
2022/06/20 14:19:07;;;;;;;8.85;2.55;;;;;;;;;;5055252;28;20025;-70
2022/06/20 14:21:36;;;;;;;4.07;1.40;;;;;;;;;;5064240;28;20065;-70
2022/06/20 14:24:02;;;;;;;8.13;2.47;;;;;;;;;;5053583;28;20016;-70
2022/06/20 14:26:34;;;;;;;5.47;2.13;;;;;;;;;;5062303;28;20020;-70
2022/06/20 14:29:01;;;;;;;7.13;1.70;;;;;;;;;;5052789;28;20021;-71
2022/06/20 14:31:29;;;;;;;7.32;1.73;;;;;;;;;;5059583;28;20028;-70
2022/06/20 14:34:01;;;;;;;6.65;1.73;;;;;;;;;;5056409;28;20412;-70
2022/06/20 14:36:36;;;;;;;6.78;2.20;;;;;;;;;;5051406;28;20056;-70
2022/06/20 14:39:13;;;;;;;8.85;2.72;;;;;;;;;;5056107;28;20024;-70
2022/06/20 14:41:41;;;;;;;7.57;1.90;;;;;;;;;;5059557;28;20088;-70
2022/06/20 14:44:21;;;;;;;8.10;2.08;;;;;;;;;;5065468;28;20021;-70
2022/06/20 14:46:58;;;;;;;6.37;1.90;;;;;;;;;;5059152;28;20493;-71
2022/06/20 14:49:37;;;;;;;9.73;1.60;;;;;;;;;;5052208;28;20028;-70
2022/06/20 14:52:25;;;;;;;7.80;2.10;;;;;;;;;;5051871;28;20073;-71
2022/06/20 14:55:09;;;;;;;9.52;2.38;;;;;;;;;;5060787;28;20051;-70
2022/06/20 14:57:40;;;;;;;7.00;1.80;;;;;;;;;;5056931;28;20032;-71
2022/06/20 15:00:18;;;;;;;5.47;1.83;;;;;;;;;;5058482;28;20385;-70
2022/06/20 15:02:45;;;;;;;6.80;1.98;;;;;;;;;;5056734;28;20047;-70
2022/06/20 15:05:33;;;;;;;7.68;2.28;;;;;;;;;;5058232;28;20059;-70
2022/06/20 15:08:17;;;;;;;8.43;2.67;;;;;;;;;;5056939;28;20561;-70
2022/06/20 15:10:48;;;;;;;6.00;2.00;;;;;;;;;;5059910;28;20013;-70
2022/06/20 15:13:21;;;;;;;5.82;2.30;;;;;;;;;;5061275;28;20024;-70
2022/06/20 15:15:47;;;;;;;17.08;2.67;;;;;;;;;;5057375;28;20044;-70
2022/06/20 15:18:34;;;;;;;13.77;3.17;;;;;;;;;;5056195;28;20780;-70